createdAt,value
2023-05-24T00:00:06.376Z,2.42
2023-05-24T00:02:32.994Z,2.70
2023-05-24T00:05:01.305Z,2.67
2023-05-24T00:07:28.117Z,2.78
2023-05-24T00:09:54.768Z,2.30
2023-05-24T00:12:21.386Z,3.05
2023-05-24T00:14:48.258Z,2.70
2023-05-24T00:17:15.231Z,2.45
2023-05-24T00:19:43.066Z,2.80
2023-05-24T00:22:09.657Z,2.20
2023-05-24T00:24:36.209Z,2.80
2023-05-24T00:27:02.985Z,2.78
2023-05-24T00:29:32.077Z,2.55
2023-05-24T00:31:58.903Z,1.90
2023-05-24T00:34:25.514Z,2.00
2023-05-24T00:36:52.118Z,2.60
2023-05-24T00:39:18.665Z,2.75
2023-05-24T00:41:45.383Z,2.45
2023-05-24T00:44:11.981Z,1.92
2023-05-24T00:46:39.478Z,2.38
2023-05-24T00:49:06.112Z,2.42
2023-05-24T00:51:35.763Z,2.13
2023-05-24T00:54:03.086Z,2.40
2023-05-24T00:56:29.967Z,1.98
2023-05-24T00:58:58.064Z,2.15
2023-05-24T01:01:31.380Z,2.22
2023-05-24T01:03:59.888Z,2.53
2023-05-24T01:06:28.446Z,2.30
2023-05-24T01:09:01.023Z,2.05
2023-05-24T01:11:54.620Z,2.45
2023-05-24T01:14:29.348Z,2.22
2023-05-24T01:17:17.892Z,2.28
2023-05-24T01:20:07.067Z,2.13
2023-05-24T01:23:08.086Z,2.50
2023-05-24T01:25:46.807Z,1.88
2023-05-24T01:28:13.393Z,2.67
2023-05-24T01:30:43.659Z,2.40
2023-05-24T01:33:11.111Z,2.50
2023-05-24T01:35:41.373Z,2.00
2023-05-24T01:38:08.855Z,2.70
2023-05-24T01:40:37.856Z,2.40
2023-05-24T01:43:17.243Z,2.13
2023-05-24T01:45:58.073Z,2.15
2023-05-24T01:49:03.318Z,2.60
2023-05-24T01:51:39.169Z,2.50
2023-05-24T01:54:06.927Z,2.65
2023-05-24T01:56:34.748Z,2.50
2023-05-24T01:59:03.383Z,3.08
2023-05-24T02:01:32.280Z,2.30
2023-05-24T02:03:59.750Z,2.50
2023-05-24T02:06:26.282Z,2.83
2023-05-24T02:08:54.394Z,2.47
2023-05-24T02:11:20.896Z,2.42
2023-05-24T02:13:47.695Z,2.55
2023-05-24T02:16:14.340Z,2.55
2023-05-24T02:18:40.895Z,3.33
2023-05-24T02:21:08.544Z,2.40
2023-05-24T02:23:35.086Z,2.35
2023-05-24T02:26:01.716Z,2.30
2023-05-24T02:28:30.027Z,2.90
2023-05-24T02:30:56.753Z,2.30
2023-05-24T02:33:25.649Z,2.58
2023-05-24T02:35:52.446Z,2.00
2023-05-24T02:38:19.100Z,2.58
2023-05-24T02:40:45.642Z,2.30
2023-05-24T02:43:12.228Z,2.85
2023-05-24T02:45:40.319Z,2.72
2023-05-24T02:48:07.038Z,2.38
2023-05-24T02:50:33.830Z,2.38
2023-05-24T02:53:01.137Z,2.50
2023-05-24T02:55:29.345Z,2.70
2023-05-24T02:57:56.384Z,2.95
2023-05-24T03:00:23.837Z,2.42
2023-05-24T03:02:51.498Z,3.35
2023-05-24T03:05:18.414Z,2.95
2023-05-24T03:07:45.042Z,2.55
2023-05-24T03:10:12.604Z,2.70
2023-05-24T03:12:42.685Z,2.72
2023-05-24T03:15:09.992Z,2.60
2023-05-24T03:17:36.700Z,3.25
2023-05-24T03:20:06.659Z,2.83
2023-05-24T03:22:33.256Z,2.72
2023-05-24T03:24:59.930Z,2.70
2023-05-24T03:27:26.460Z,3.03
2023-05-24T03:29:53.276Z,3.55
2023-05-24T03:32:19.778Z,2.70
2023-05-24T03:34:46.508Z,2.80
2023-05-24T03:37:14.095Z,2.88
2023-05-24T03:39:40.675Z,2.78
2023-05-24T03:42:10.403Z,2.78
2023-05-24T03:44:37.627Z,2.97
2023-05-24T03:47:04.286Z,2.80
2023-05-24T03:49:32.078Z,2.22
2023-05-24T03:51:58.944Z,2.75
2023-05-24T03:54:25.755Z,2.50
2023-05-24T03:56:53.622Z,3.42
2023-05-24T03:59:20.326Z,3.00
2023-05-24T04:01:47.136Z,2.90
2023-05-24T04:04:14.371Z,2.88
2023-05-24T04:06:41.924Z,2.85
2023-05-24T04:09:09.982Z,2.90
2023-05-24T04:11:36.836Z,2.85
2023-05-24T04:14:03.879Z,2.45
2023-05-24T04:16:34.508Z,2.63
2023-05-24T04:19:02.325Z,3.08
2023-05-24T04:21:29.717Z,2.78
2023-05-24T04:23:56.546Z,2.67
2023-05-24T04:26:23.394Z,2.72
2023-05-24T04:28:50.353Z,2.45
2023-05-24T04:31:17.016Z,2.85
2023-05-24T04:33:44.895Z,2.90
2023-05-24T04:36:11.997Z,2.97
2023-05-24T04:38:39.720Z,3.05
2023-05-24T04:41:08.028Z,3.17
2023-05-24T04:43:35.273Z,3.55
2023-05-24T04:46:02.076Z,3.55
2023-05-24T04:48:29.897Z,3.28
2023-05-24T04:50:58.284Z,3.55
2023-05-24T04:53:25.804Z,4.00
2023-05-24T04:55:53.085Z,3.00
2023-05-24T04:58:19.790Z,2.70
2023-05-24T05:00:46.341Z,3.53
2023-05-24T05:03:13.766Z,3.05
2023-05-24T05:05:40.736Z,3.85
2023-05-24T05:08:08.009Z,4.38
2023-05-24T05:10:36.836Z,3.17
2023-05-24T05:13:03.483Z,4.00
2023-05-24T05:18:11.348Z,3.60
2023-05-24T05:20:38.134Z,3.40
2023-05-24T05:23:04.820Z,3.88
2023-05-24T05:25:31.878Z,3.17
2023-05-24T05:27:59.531Z,3.83
2023-05-24T05:30:26.449Z,3.22
2023-05-24T05:32:53.095Z,3.45
2023-05-24T05:35:19.844Z,3.42
2023-05-24T05:37:46.413Z,3.25
2023-05-24T05:40:12.967Z,3.35
2023-05-24T05:42:39.861Z,3.55
2023-05-24T05:45:07.441Z,3.30
2023-05-24T05:47:34.096Z,3.90
2023-05-24T05:50:01.034Z,3.72
2023-05-24T05:52:27.614Z,3.38
2023-05-24T05:54:54.613Z,3.78
2023-05-24T05:57:24.573Z,3.78
2023-05-24T05:59:51.521Z,4.05
2023-05-24T06:02:23.039Z,3.95
2023-05-24T06:04:50.070Z,4.25
2023-05-24T06:07:17.659Z,3.70
2023-05-24T06:09:44.482Z,4.28
2023-05-24T06:12:12.568Z,3.53
2023-05-24T06:14:39.121Z,4.25
2023-05-24T06:17:06.809Z,4.18
2023-05-24T06:19:33.369Z,3.63
2023-05-24T06:22:00.010Z,3.55
2023-05-24T06:24:29.119Z,4.22
2023-05-24T06:26:56.248Z,3.40
2023-05-24T06:29:22.996Z,4.05
2023-05-24T06:31:50.136Z,3.38
2023-05-24T06:34:21.592Z,4.22
2023-05-24T06:39:16.180Z,4.20
2023-05-24T06:41:44.491Z,4.88
2023-05-24T06:44:11.177Z,3.50
2023-05-24T06:46:37.768Z,3.75
2023-05-24T06:49:04.556Z,3.75
2023-05-24T06:51:31.705Z,4.20
2023-05-24T06:53:59.493Z,4.10
2023-05-24T06:56:27.501Z,3.85
2023-05-24T06:58:54.424Z,4.55
2023-05-24T07:01:21.321Z,4.05
2023-05-24T07:03:47.916Z,4.22
2023-05-24T07:06:16.422Z,4.78
2023-05-24T07:08:42.897Z,3.78
2023-05-24T07:11:10.152Z,4.00
2023-05-24T07:13:38.110Z,3.67
2023-05-24T07:16:04.779Z,4.25
2023-05-24T07:18:31.900Z,4.40
2023-05-24T07:20:58.464Z,4.43
2023-05-24T07:23:25.021Z,3.75
2023-05-24T07:25:51.846Z,4.60
2023-05-24T07:28:20.307Z,4.05
2023-05-24T07:30:46.989Z,4.00
2023-05-24T07:33:14.927Z,4.40
2023-05-24T07:35:41.971Z,4.32
2023-05-24T07:38:09.697Z,4.05
2023-05-24T07:40:36.261Z,4.13
2023-05-24T07:43:04.178Z,3.60
2023-05-24T07:45:31.437Z,4.13
2023-05-24T07:47:58.119Z,5.10
2023-05-24T07:50:25.017Z,4.82
2023-05-24T07:52:53.968Z,4.53
2023-05-24T07:55:22.336Z,3.85
2023-05-24T07:57:49.289Z,4.10
2023-05-24T08:00:16.461Z,4.07
2023-05-24T08:02:46.760Z,4.55
2023-05-24T08:05:14.814Z,5.05
2023-05-24T08:07:42.247Z,4.47
2023-05-24T08:10:14.061Z,4.95
2023-05-24T08:12:41.414Z,4.07
2023-05-24T08:15:08.593Z,4.03
2023-05-24T08:17:35.537Z,4.43
2023-05-24T08:20:09.226Z,4.13
2023-05-24T08:22:38.656Z,4.43
2023-05-24T08:25:06.977Z,4.05
2023-05-24T08:27:33.674Z,3.75
2023-05-24T08:30:00.292Z,4.30
2023-05-24T08:32:27.000Z,4.78
2023-05-24T08:35:00.332Z,4.43
2023-05-24T08:37:35.868Z,3.97
2023-05-24T08:40:05.043Z,3.88
2023-05-24T08:42:35.643Z,4.28
2023-05-24T08:45:11.870Z,4.10
2023-05-24T08:47:39.346Z,4.40
2023-05-24T08:50:07.900Z,4.15
2023-05-24T08:52:35.602Z,4.05
2023-05-24T08:55:04.484Z,4.55
2023-05-24T08:57:36.260Z,3.92
2023-05-24T09:00:05.519Z,4.43
2023-05-24T09:02:33.520Z,4.28
2023-05-24T09:05:00.504Z,3.70
2023-05-24T09:07:27.644Z,3.80
2023-05-24T09:09:59.201Z,4.03
2023-05-24T09:12:37.406Z,3.85
2023-05-24T09:15:06.613Z,4.55
2023-05-24T09:17:34.797Z,3.97
2023-05-24T09:20:01.541Z,4.15
2023-05-24T09:22:30.985Z,4.00
2023-05-24T09:25:00.614Z,4.38
2023-05-24T09:27:28.549Z,3.70
2023-05-24T09:29:55.612Z,3.70
2023-05-24T09:32:24.601Z,4.20
2023-05-24T09:34:56.056Z,3.60
2023-05-24T09:37:29.038Z,4.03
2023-05-24T09:40:00.166Z,3.67
2023-05-24T09:42:29.007Z,3.67
2023-05-24T09:45:03.010Z,3.47
2023-05-24T09:47:33.501Z,3.30
2023-05-24T09:50:01.460Z,3.15
2023-05-24T09:52:28.450Z,2.97
2023-05-24T09:54:55.206Z,3.45
2023-05-24T09:57:22.947Z,3.38
2023-05-24T09:59:51.054Z,3.13
2023-05-24T10:02:22.992Z,2.58
2023-05-24T10:04:59.390Z,2.50
2023-05-24T10:07:26.287Z,2.63
2023-05-24T10:09:54.019Z,2.90
2023-05-24T10:12:24.068Z,3.35
2023-05-24T10:14:52.114Z,2.85
2023-05-24T10:17:19.943Z,3.60
2023-05-24T10:19:46.734Z,3.15
2023-05-24T10:22:16.136Z,2.83
2023-05-24T10:24:48.286Z,2.50
2023-05-24T10:27:21.188Z,2.88
2023-05-24T10:30:12.184Z,3.20
2023-05-24T10:32:45.102Z,2.88
2023-05-24T10:35:13.431Z,3.00
2023-05-24T10:37:40.505Z,2.88
2023-05-24T10:40:10.260Z,2.67
2023-05-24T10:42:39.079Z,2.38
2023-05-24T10:45:48.338Z,2.25
2023-05-24T10:48:15.697Z,2.38
2023-05-24T10:50:43.724Z,2.45
2023-05-24T10:53:15.356Z,2.45
2023-05-24T10:55:54.521Z,2.53
2023-05-24T10:58:26.945Z,2.40
2023-05-24T11:00:54.033Z,2.33
2023-05-24T11:03:26.884Z,2.45
2023-05-24T11:05:54.987Z,2.80
2023-05-24T11:08:35.887Z,2.70
2023-05-24T11:11:26.625Z,2.42
2023-05-24T11:13:59.660Z,3.00
2023-05-24T11:16:40.868Z,3.67
2023-05-24T11:19:22.656Z,2.80
2023-05-24T11:21:58.821Z,2.70
2023-05-24T11:24:26.861Z,3.00
2023-05-24T11:26:54.252Z,2.67
2023-05-24T11:29:22.713Z,2.53
2023-05-24T11:31:57.119Z,2.70
2023-05-24T11:34:24.994Z,2.67
2023-05-24T11:36:55.544Z,3.22
2023-05-24T11:39:23.693Z,2.63
2023-05-24T11:41:50.352Z,2.15
2023-05-24T11:44:21.565Z,2.70
2023-05-24T11:46:49.787Z,2.60
2023-05-24T11:49:17.529Z,2.90
2023-05-24T11:51:44.406Z,3.08
2023-05-24T11:54:12.032Z,2.78
2023-05-24T11:56:38.648Z,2.58
2023-05-24T11:59:26.207Z,2.60
2023-05-24T12:02:09.131Z,2.80
2023-05-24T12:04:36.169Z,2.95
2023-05-24T12:07:03.285Z,3.10
2023-05-24T12:09:30.204Z,2.88
2023-05-24T12:11:58.823Z,2.80
2023-05-24T12:14:33.253Z,2.90
2023-05-24T12:17:01.551Z,2.55
2023-05-24T12:19:35.908Z,2.67
2023-05-24T12:22:07.266Z,3.38
2023-05-24T12:24:34.769Z,3.28
2023-05-24T12:27:03.349Z,3.25
2023-05-24T12:29:35.524Z,3.17
2023-05-24T12:32:02.707Z,3.20
2023-05-24T12:34:29.590Z,3.03
2023-05-24T12:36:56.239Z,3.42
2023-05-24T12:39:35.462Z,2.97
2023-05-24T12:42:03.409Z,3.30
2023-05-24T12:44:35.530Z,3.38
2023-05-24T12:47:04.454Z,2.90
2023-05-24T12:49:31.898Z,3.45
2023-05-24T12:52:00.000Z,2.85
2023-05-24T12:54:28.109Z,3.72
2023-05-24T12:56:56.951Z,3.13
2023-05-24T12:59:24.207Z,2.72
2023-05-24T13:01:52.003Z,2.95
2023-05-24T13:04:22.006Z,3.08
2023-05-24T13:06:50.325Z,3.20
2023-05-24T13:09:22.517Z,3.25
2023-05-24T13:11:50.857Z,3.33
2023-05-24T13:14:18.585Z,3.20
2023-05-24T13:16:47.486Z,2.90
2023-05-24T13:19:14.679Z,2.83
2023-05-24T13:21:41.701Z,2.40
2023-05-24T13:24:08.719Z,2.85
2023-05-24T13:26:39.073Z,2.72
2023-05-24T13:31:37.895Z,2.65
2023-05-24T13:34:05.061Z,2.63
2023-05-24T13:36:32.056Z,2.40
2023-05-24T13:39:13.241Z,2.83
2023-05-24T13:41:42.295Z,2.40
2023-05-24T13:44:10.260Z,2.40
2023-05-24T13:46:37.154Z,2.60
2023-05-24T13:49:03.954Z,2.55
2023-05-24T13:51:30.798Z,2.95
2023-05-24T13:53:57.658Z,2.78
2023-05-24T13:56:24.988Z,2.67
2023-05-24T13:58:52.867Z,2.88
2023-05-24T14:01:20.806Z,2.72
2023-05-24T14:03:48.191Z,2.70
2023-05-24T14:06:14.899Z,3.15
2023-05-24T14:08:41.670Z,2.38
2023-05-24T14:11:08.726Z,2.42
2023-05-24T14:16:06.539Z,2.65
2023-05-24T14:18:34.644Z,3.03
2023-05-24T14:21:01.501Z,2.53
2023-05-24T14:23:32.977Z,2.90
2023-05-24T14:26:00.306Z,2.55
2023-05-24T14:28:27.450Z,2.97
2023-05-24T14:30:54.203Z,2.80
2023-05-24T14:33:20.822Z,2.80
2023-05-24T14:35:48.147Z,2.90
2023-05-24T14:38:15.920Z,3.10
2023-05-24T14:40:47.587Z,3.10
2023-05-24T14:43:16.834Z,2.45
2023-05-24T14:45:43.845Z,2.83
2023-05-24T14:48:12.055Z,2.67
2023-05-24T14:50:40.419Z,2.83
2023-05-24T14:53:12.885Z,2.80
2023-05-24T14:55:42.154Z,2.72
2023-05-24T14:58:11.971Z,3.00
2023-05-24T15:00:40.199Z,3.00
2023-05-24T15:03:08.464Z,2.78
2023-05-24T15:05:35.494Z,3.17
2023-05-24T15:08:02.408Z,2.60
2023-05-24T15:10:29.495Z,3.00
2023-05-24T15:12:56.137Z,3.17
2023-05-24T15:15:24.476Z,2.80
2023-05-24T15:17:51.117Z,3.17
2023-05-24T15:20:19.558Z,2.60
2023-05-24T15:22:46.360Z,2.80
2023-05-24T15:25:13.606Z,2.60
2023-05-24T15:27:41.453Z,2.65
2023-05-24T15:30:08.472Z,3.13
2023-05-24T15:32:37.706Z,2.65
2023-05-24T15:35:06.340Z,2.85
2023-05-24T15:37:33.058Z,2.92
2023-05-24T15:39:59.579Z,3.50
2023-05-24T15:42:26.271Z,3.33
2023-05-24T15:44:52.849Z,3.40
2023-05-24T15:47:22.209Z,3.50
2023-05-24T15:49:50.127Z,3.25
2023-05-24T15:52:16.842Z,3.22
2023-05-24T15:54:43.448Z,2.90
2023-05-24T15:57:10.033Z,3.38
2023-05-24T15:59:38.810Z,2.60
2023-05-24T16:02:08.938Z,2.97
2023-05-24T16:04:36.048Z,3.20
2023-05-24T16:07:06.155Z,2.80
2023-05-24T16:09:32.810Z,2.92
2023-05-24T16:12:01.255Z,2.70
2023-05-24T16:14:28.099Z,2.90
2023-05-24T16:16:57.394Z,3.20
2023-05-24T16:19:25.344Z,3.17
2023-05-24T16:21:52.452Z,3.30
2023-05-24T16:24:19.919Z,2.92
2023-05-24T16:26:48.014Z,3.40
2023-05-24T16:29:16.670Z,2.92
2023-05-24T16:31:44.187Z,2.67
2023-05-24T16:34:11.030Z,3.60
2023-05-24T16:36:37.851Z,4.05
2023-05-24T16:39:04.960Z,2.75
2023-05-24T16:41:44.009Z,2.95
2023-05-24T16:44:21.210Z,3.40
2023-05-24T16:49:14.890Z,3.22
2023-05-24T16:51:44.391Z,3.00
2023-05-24T16:54:11.226Z,3.45
2023-05-24T16:56:40.898Z,3.28
2023-05-24T16:59:07.597Z,3.70
2023-05-24T17:01:34.276Z,3.08
2023-05-24T17:04:01.270Z,3.15
2023-05-24T17:06:28.892Z,3.50
2023-05-24T17:08:55.638Z,3.63
2023-05-24T17:11:23.398Z,3.20
2023-05-24T17:13:51.397Z,3.13
2023-05-24T17:16:19.500Z,3.47
2023-05-24T17:18:46.266Z,2.75
2023-05-24T17:21:13.116Z,2.97
2023-05-24T17:23:40.190Z,3.13
2023-05-24T17:26:10.945Z,3.53
2023-05-24T17:28:44.508Z,3.15
2023-05-24T17:31:13.632Z,2.95
2023-05-24T17:33:40.216Z,3.83
2023-05-24T17:36:07.056Z,3.42
2023-05-24T17:38:34.165Z,2.80
2023-05-24T17:41:00.933Z,3.40
2023-05-24T17:43:34.263Z,3.53
2023-05-24T17:46:08.715Z,3.38
2023-05-24T17:48:42.332Z,3.00
2023-05-24T17:51:14.144Z,3.45
2023-05-24T17:53:44.269Z,3.03
2023-05-24T17:56:15.567Z,3.17
2023-05-24T17:58:42.104Z,2.80
2023-05-24T18:01:11.953Z,3.15
2023-05-24T18:03:41.204Z,3.42
2023-05-24T18:06:09.308Z,3.85
2023-05-24T18:08:38.681Z,2.95
2023-05-24T18:11:08.672Z,3.47
2023-05-24T18:13:37.086Z,3.05
2023-05-24T18:16:04.136Z,3.17
2023-05-24T18:18:34.018Z,2.95
2023-05-24T18:21:07.081Z,3.10
2023-05-24T18:23:37.969Z,3.45
2023-05-24T18:26:09.045Z,3.10
2023-05-24T18:28:38.229Z,3.13
2023-05-24T18:31:09.134Z,3.15
2023-05-24T18:33:37.354Z,3.03
2023-05-24T18:36:05.591Z,2.97
2023-05-24T18:38:42.456Z,2.67
2023-05-24T18:41:12.569Z,3.50
2023-05-24T18:43:39.560Z,3.20
2023-05-24T18:46:09.299Z,3.70
2023-05-24T18:48:36.305Z,3.50
2023-05-24T18:51:03.392Z,3.08
2023-05-24T18:53:30.739Z,2.80
2023-05-24T18:55:57.668Z,3.58
2023-05-24T18:58:24.318Z,3.15
2023-05-24T19:00:52.175Z,3.22
2023-05-24T19:03:18.855Z,2.97
2023-05-24T19:05:45.951Z,3.38
2023-05-24T19:08:12.808Z,3.28
2023-05-24T19:10:39.471Z,3.20
2023-05-24T19:13:07.052Z,3.13
2023-05-24T19:15:36.877Z,3.38
2023-05-24T19:18:06.359Z,3.45
2023-05-24T19:20:34.730Z,3.38
2023-05-24T19:23:01.707Z,3.55
2023-05-24T19:25:28.401Z,3.42
2023-05-24T19:27:59.921Z,3.33
2023-05-24T19:30:27.483Z,3.63
2023-05-24T19:35:40.849Z,3.40
2023-05-24T19:38:07.729Z,4.00
2023-05-24T19:40:35.351Z,3.55
2023-05-24T19:43:04.821Z,3.15
2023-05-24T19:45:31.387Z,3.13
2023-05-24T19:47:59.132Z,3.33
2023-05-24T19:50:31.383Z,3.22
2023-05-24T19:52:58.247Z,2.90
2023-05-24T19:55:24.845Z,3.45
2023-05-24T19:57:51.512Z,3.97
2023-05-24T20:00:18.425Z,3.38
2023-05-24T20:02:46.470Z,3.33
2023-05-24T20:05:13.349Z,3.97
2023-05-24T20:07:41.033Z,3.65
2023-05-24T20:10:08.128Z,3.63
2023-05-24T20:12:34.770Z,3.30
2023-05-24T20:15:01.766Z,3.25
2023-05-24T20:17:29.562Z,3.28
2023-05-24T20:20:05.476Z,3.80
2023-05-24T20:22:33.946Z,3.45
2023-05-24T20:25:02.637Z,3.45
2023-05-24T20:27:29.227Z,3.65
2023-05-24T20:29:58.416Z,3.90
2023-05-24T20:32:25.000Z,4.35
2023-05-24T20:34:52.851Z,3.83
2023-05-24T20:37:19.576Z,4.43
2023-05-24T20:39:46.125Z,3.65
2023-05-24T20:42:12.769Z,4.55
2023-05-24T20:44:39.305Z,3.58
2023-05-24T20:47:17.255Z,3.70
2023-05-24T20:52:10.737Z,3.22
2023-05-24T20:54:39.058Z,4.15
2023-05-24T20:57:06.973Z,3.30
2023-05-24T20:59:35.995Z,4.95
2023-05-24T21:02:02.576Z,3.65
2023-05-24T21:04:29.088Z,3.60
2023-05-24T21:06:56.796Z,3.30
2023-05-24T21:09:23.573Z,3.90
2023-05-24T21:11:50.142Z,3.60
2023-05-24T21:14:18.145Z,3.80
2023-05-24T21:16:44.701Z,4.35
2023-05-24T21:19:11.536Z,4.40
2023-05-24T21:21:45.677Z,3.92
2023-05-24T21:24:14.768Z,4.70
2023-05-24T21:26:43.126Z,4.00
2023-05-24T21:29:14.864Z,4.68
2023-05-24T21:31:41.633Z,4.55
2023-05-24T21:34:08.355Z,4.30
2023-05-24T21:36:34.921Z,4.63
2023-05-24T21:39:07.550Z,4.85
2023-05-24T21:41:43.007Z,4.65
2023-05-24T21:44:11.038Z,4.13
2023-05-24T21:46:40.056Z,4.30
2023-05-24T21:49:08.160Z,4.65
2023-05-24T21:51:35.956Z,4.32
2023-05-24T21:54:03.685Z,4.38
2023-05-24T21:56:30.638Z,4.25
2023-05-24T21:58:57.133Z,4.18
2023-05-24T22:01:28.232Z,4.20
2023-05-24T22:03:55.095Z,4.35
2023-05-24T22:06:22.736Z,4.10
2023-05-24T22:08:50.526Z,3.83
2023-05-24T22:11:17.668Z,4.72
2023-05-24T22:13:44.181Z,3.72
2023-05-24T22:16:12.311Z,4.28
2023-05-24T22:18:40.614Z,3.95
2023-05-24T22:21:07.401Z,4.65
2023-05-24T22:23:33.960Z,4.38
2023-05-24T22:26:08.308Z,3.78
2023-05-24T22:28:54.735Z,3.90
2023-05-24T22:31:22.157Z,3.70
2023-05-24T22:33:49.304Z,4.10
2023-05-24T22:36:15.866Z,4.30
2023-05-24T22:38:42.364Z,4.63
2023-05-24T22:41:08.928Z,4.35
2023-05-24T22:43:35.725Z,4.53
2023-05-24T22:46:02.577Z,4.30
2023-05-24T22:48:29.249Z,4.32
2023-05-24T22:51:02.257Z,3.90
2023-05-24T22:53:30.241Z,4.47
2023-05-24T22:55:59.688Z,4.18
2023-05-24T22:58:26.260Z,4.10
2023-05-24T23:00:53.266Z,4.25
2023-05-24T23:03:23.136Z,4.57
2023-05-24T23:05:54.736Z,4.63
2023-05-24T23:08:21.911Z,3.92
2023-05-24T23:10:48.536Z,3.78
2023-05-24T23:13:16.892Z,4.70
2023-05-24T23:15:43.718Z,4.57
2023-05-24T23:18:16.599Z,4.15
2023-05-24T23:20:44.440Z,3.67
2023-05-24T23:23:13.987Z,4.53
2023-05-24T23:25:41.357Z,4.57
2023-05-24T23:28:11.096Z,4.07
2023-05-24T23:30:38.444Z,4.78
2023-05-24T23:33:05.277Z,4.72
2023-05-24T23:35:32.144Z,4.63
2023-05-24T23:37:58.870Z,4.28
2023-05-24T23:40:28.564Z,4.68
2023-05-24T23:42:55.107Z,4.70
2023-05-24T23:45:21.690Z,4.10
2023-05-24T23:47:48.508Z,4.90
2023-05-24T23:50:17.527Z,4.68
2023-05-24T23:52:45.756Z,5.10
2023-05-24T23:55:12.556Z,4.90
2023-05-24T23:57:41.912Z,4.72
